Time;durP1;ratioP1;P1;durP2;ratioP2;P2;SDS_P1;SDS_P2;PMS_P1;PMS_P2;Temp;Humidity;BMP_temperature;BMP_pressure;BME280_temperature;BME280_humidity;BME280_pressure;Samples;Min_cycle;Max_cycle;Signal;HPM_P1;HPM_P2
2022/05/11 00:01:56;;;;;;;6.70;2.42;;;;;;;;;;4990771;28;95350;-74
2022/05/11 00:04:23;;;;;;;7.85;2.40;;;;;;;;;;4988087;28;97368;-74
2022/05/11 00:06:49;;;;;;;6.05;2.80;;;;;;;;;;4988518;28;96079;-74
2022/05/11 00:09:16;;;;;;;8.07;3.00;;;;;;;;;;4969914;28;96811;-74
2022/05/11 00:11:43;;;;;;;6.30;3.10;;;;;;;;;;4972243;28;97243;-75
2022/05/11 00:14:09;;;;;;;10.15;3.28;;;;;;;;;;4988336;28;95694;-75
2022/05/11 00:16:36;;;;;;;5.38;2.70;;;;;;;;;;4988753;28;95773;-75
2022/05/11 00:19:03;;;;;;;8.35;2.90;;;;;;;;;;4988186;28;97329;-75
2022/05/11 00:21:30;;;;;;;12.20;3.20;;;;;;;;;;4985479;28;95630;-75
2022/05/11 00:23:56;;;;;;;5.85;3.15;;;;;;;;;;4989661;28;96941;-75
2022/05/11 00:26:23;;;;;;;5.75;2.78;;;;;;;;;;4988130;28;95470;-75
2022/05/11 00:28:49;;;;;;;13.27;3.30;;;;;;;;;;4990200;28;97198;-74
2022/05/11 00:31:16;;;;;;;9.85;3.30;;;;;;;;;;4980887;28;97285;-75
2022/05/11 00:33:42;;;;;;;8.07;2.85;;;;;;;;;;4971945;28;95272;-75
2022/05/11 00:36:10;;;;;;;9.05;3.03;;;;;;;;;;4971583;28;96616;-75
2022/05/11 00:38:36;;;;;;;12.38;3.30;;;;;;;;;;4972851;28;97392;-75
2022/05/11 00:41:03;;;;;;;7.10;3.05;;;;;;;;;;4989502;28;95365;-75
2022/05/11 00:43:31;;;;;;;8.60;3.22;;;;;;;;;;4991124;28;96692;-75
2022/05/11 00:46:07;;;;;;;7.00;3.03;;;;;;;;;;4994575;28;97276;-75
2022/05/11 00:51:19;;;;;;;5.90;3.20;;;;;;;;;;4981550;28;98043;-75
2022/05/11 00:53:50;;;;;;;7.18;3.33;;;;;;;;;;4971507;28;95302;-75
2022/05/11 00:56:16;;;;;;;7.40;3.50;;;;;;;;;;4971098;28;96814;-75
2022/05/11 00:58:52;;;;;;;7.43;3.88;;;;;;;;;;4970105;28;97406;-75
2022/05/11 01:01:19;;;;;;;8.93;3.70;;;;;;;;;;4972182;28;95304;-75
2022/05/11 01:03:51;;;;;;;7.97;3.70;;;;;;;;;;4970831;28;95923;-76
2022/05/11 01:06:18;;;;;;;7.13;3.50;;;;;;;;;;4971197;28;97389;-75
2022/05/11 01:08:45;;;;;;;9.98;3.97;;;;;;;;;;4991238;28;96453;-75
2022/05/11 01:11:11;;;;;;;7.57;4.38;;;;;;;;;;4989500;28;97904;-75
2022/05/11 01:13:39;;;;;;;9.85;4.03;;;;;;;;;;4988775;28;95432;-75
2022/05/11 01:16:05;;;;;;;10.20;3.88;;;;;;;;;;4991133;28;97231;-75
2022/05/11 01:18:32;;;;;;;9.25;4.18;;;;;;;;;;4990157;28;97589;-75
2022/05/11 01:20:59;;;;;;;9.40;4.10;;;;;;;;;;4990247;28;95425;-75
2022/05/11 01:23:31;;;;;;;8.43;4.00;;;;;;;;;;4974286;28;96849;-76
2022/05/11 01:25:57;;;;;;;10.35;4.22;;;;;;;;;;4988852;28;97345;-75
2022/05/11 01:28:23;;;;;;;7.93;4.32;;;;;;;;;;4988997;28;95826;-75
2022/05/11 01:30:52;;;;;;;10.93;4.60;;;;;;;;;;4993937;28;96860;-75
2022/05/11 01:33:20;;;;;;;11.02;4.25;;;;;;;;;;4973925;28;95309;-75
2022/05/11 01:36:05;;;;;;;8.60;4.47;;;;;;;;;;4971223;28;96938;-74
2022/05/11 01:38:34;;;;;;;11.73;4.75;;;;;;;;;;4971445;28;97546;-75
2022/05/11 01:41:01;;;;;;;9.13;4.00;;;;;;;;;;4970637;28;95447;-75
2022/05/11 01:43:29;;;;;;;11.43;4.80;;;;;;;;;;4970431;28;97149;-76
2022/05/11 01:45:55;;;;;;;9.23;4.50;;;;;;;;;;4974363;28;97168;-75
2022/05/11 01:48:23;;;;;;;7.00;3.85;;;;;;;;;;4990505;28;95396;-75
2022/05/11 01:50:49;;;;;;;9.82;4.10;;;;;;;;;;4989055;28;96393;-75
2022/05/11 01:53:16;;;;;;;11.60;3.97;;;;;;;;;;4990761;28;95947;-75
2022/05/11 01:55:43;;;;;;;9.55;4.10;;;;;;;;;;4989060;28;95735;-75
2022/05/11 01:58:11;;;;;;;9.45;4.95;;;;;;;;;;4990310;28;97398;-75
2022/05/11 02:00:38;;;;;;;8.25;4.97;;;;;;;;;;4989829;28;95672;-75
2022/05/11 02:03:05;;;;;;;10.25;4.50;;;;;;;;;;4980689;28;96768;-75
2022/05/11 02:08:16;;;;;;;14.32;5.07;;;;;;;;;;4969940;28;95328;-75
2022/05/11 02:10:43;;;;;;;9.38;4.40;;;;;;;;;;4970532;28;97429;-75
2022/05/11 02:13:10;;;;;;;11.18;4.75;;;;;;;;;;4981387;28;97567;-73
2022/05/11 02:15:37;;;;;;;11.50;4.63;;;;;;;;;;4986649;28;96013;-75
2022/05/11 02:18:04;;;;;;;11.18;4.65;;;;;;;;;;4989035;28;97442;-76
2022/05/11 02:20:31;;;;;;;11.10;4.78;;;;;;;;;;4989720;28;95784;-74
2022/05/11 02:22:57;;;;;;;7.43;4.50;;;;;;;;;;4982740;28;95941;-75
2022/05/11 02:25:25;;;;;;;10.93;4.93;;;;;;;;;;4969774;28;97568;-76
2022/05/11 02:27:51;;;;;;;19.35;5.07;;;;;;;;;;4969803;28;95684;-76
2022/05/11 02:30:23;;;;;;;9.77;5.47;;;;;;;;;;4980674;28;96883;-75
2022/05/11 02:32:50;;;;;;;11.88;5.75;;;;;;;;;;4981629;28;97342;-74
2022/05/11 02:35:17;;;;;;;8.75;5.10;;;;;;;;;;4972743;28;95397;-75
2022/05/11 02:37:45;;;;;;;12.70;5.07;;;;;;;;;;4970219;28;97019;-76
2022/05/11 02:40:13;;;;;;;12.23;5.13;;;;;;;;;;4969823;28;95388;-75
2022/05/11 02:42:40;;;;;;;8.68;4.57;;;;;;;;;;4969480;28;97166;-74
2022/05/11 02:45:07;;;;;;;9.57;4.63;;;;;;;;;;4988206;28;97255;-74
2022/05/11 02:47:34;;;;;;;10.75;4.68;;;;;;;;;;4989728;28;95731;-75
2022/05/11 02:50:03;;;;;;;8.60;4.63;;;;;;;;;;4989098;28;96116;-74
2022/05/11 02:52:30;;;;;;;8.18;4.63;;;;;;;;;;4988874;28;97487;-75
2022/05/11 02:54:57;;;;;;;13.93;5.32;;;;;;;;;;4972436;28;96116;-74
2022/05/11 02:57:23;;;;;;;8.32;4.90;;;;;;;;;;4972420;28;96106;-73
2022/05/11 02:59:50;;;;;;;7.40;4.63;;;;;;;;;;4970100;28;95517;-74
2022/05/11 03:02:20;;;;;;;10.75;4.75;;;;;;;;;;4969306;28;96776;-72
2022/05/11 03:04:48;;;;;;;12.57;4.75;;;;;;;;;;4970202;28;97518;-75
2022/05/11 03:07:14;;;;;;;7.80;4.20;;;;;;;;;;4969684;28;96196;-75
2022/05/11 03:09:41;;;;;;;9.15;4.38;;;;;;;;;;4969935;28;96351;-74
2022/05/11 03:12:08;;;;;;;11.50;4.40;;;;;;;;;;4968904;28;97652;-75
2022/05/11 03:14:34;;;;;;;8.77;4.03;;;;;;;;;;4978480;28;95663;-74
2022/05/11 03:17:02;;;;;;;8.30;4.22;;;;;;;;;;4988967;28;96861;-75
2022/05/11 03:19:29;;;;;;;14.23;3.80;;;;;;;;;;4992857;28;97114;-75
2022/05/11 03:21:57;;;;;;;6.50;3.38;;;;;;;;;;4988006;28;96913;-75
2022/05/11 03:24:24;;;;;;;9.07;3.47;;;;;;;;;;4987265;28;97530;-75
2022/05/11 03:26:51;;;;;;;9.45;3.60;;;;;;;;;;4989380;28;95367;-75
2022/05/11 03:29:19;;;;;;;11.45;3.38;;;;;;;;;;4989186;28;96832;-78
2022/05/11 03:34:36;;;;;;;8.38;3.35;;;;;;;;;;4988707;28;96182;-75
2022/05/11 03:34:36;;;;;;;11.73;4.10;;;;;;;;;;4982904;28;95670;-75
2022/05/11 03:37:03;;;;;;;11.20;3.60;;;;;;;;;;4969002;28;96078;-75
2022/05/11 03:39:30;;;;;;;12.40;3.55;;;;;;;;;;4968418;28;97319;-74
2022/05/11 03:41:56;;;;;;;9.45;3.13;;;;;;;;;;4989553;28;95431;-75
2022/05/11 03:44:23;;;;;;;7.93;3.55;;;;;;;;;;4987622;28;97719;-75
2022/05/11 03:46:49;;;;;;;9.95;3.30;;;;;;;;;;4988274;28;95452;-75
2022/05/11 03:49:16;;;;;;;6.45;3.03;;;;;;;;;;4988843;28;96745;-75
2022/05/11 03:51:42;;;;;;;8.57;3.80;;;;;;;;;;4988418;28;97718;-75
2022/05/11 03:54:09;;;;;;;10.15;3.08;;;;;;;;;;4988139;28;95579;-75
2022/05/11 03:56:35;;;;;;;5.65;2.83;;;;;;;;;;4988681;28;96971;-75
2022/05/11 03:59:02;;;;;;;11.75;3.35;;;;;;;;;;4989174;28;97626;-74
2022/05/11 04:01:29;;;;;;;9.82;3.53;;;;;;;;;;4987924;28;95384;-75
2022/05/11 04:03:55;;;;;;;6.38;3.00;;;;;;;;;;4994100;28;96907;-75
2022/05/11 04:06:21;;;;;;;11.07;3.60;;;;;;;;;;4974276;28;95474;-75
2022/05/11 04:08:48;;;;;;;8.38;3.20;;;;;;;;;;4972493;28;96842;-75
2022/05/11 04:11:15;;;;;;;6.28;3.13;;;;;;;;;;4972127;28;97248;-75
2022/05/11 04:13:42;;;;;;;8.35;2.90;;;;;;;;;;4971973;28;95355;-75
2022/05/11 04:16:08;;;;;;;7.80;2.85;;;;;;;;;;4985060;28;96744;-74
2022/05/11 04:18:35;;;;;;;7.55;2.72;;;;;;;;;;4991655;28;97479;-75
2022/05/11 04:21:02;;;;;;;13.10;2.50;;;;;;;;;;4991316;28;95501;-75
2022/05/11 04:23:28;;;;;;;7.53;2.42;;;;;;;;;;4995178;28;96019;-75
2022/05/11 04:25:55;;;;;;;9.10;2.47;;;;;;;;;;4980942;28;95400;-73
2022/05/11 04:28:23;;;;;;;7.75;2.25;;;;;;;;;;4971378;28;97104;-74
2022/05/11 04:30:49;;;;;;;6.53;2.67;;;;;;;;;;4970111;28;97672;-74
2022/05/11 04:33:16;;;;;;;9.38;2.85;;;;;;;;;;4971835;28;95348;-74
2022/05/11 04:35:42;;;;;;;9.23;2.63;;;;;;;;;;4977556;28;96814;-75
2022/05/11 04:38:09;;;;;;;9.20;2.28;;;;;;;;;;4990365;28;97450;-74
2022/05/11 04:40:35;;;;;;;6.47;2.53;;;;;;;;;;4991241;28;95277;-75
2022/05/11 04:43:07;;;;;;;5.75;2.10;;;;;;;;;;4990872;28;96872;-74
2022/05/11 04:45:35;;;;;;;5.85;2.10;;;;;;;;;;4993857;28;97665;-74
2022/05/11 04:48:02;;;;;;;8.25;2.42;;;;;;;;;;4991945;28;96960;-75
2022/05/11 19:25:23;;;;;;;8.52;1.58;;;;;;;;;;5046763;27;95393;-74
2022/05/11 19:27:50;;;;;;;9.95;1.70;;;;;;;;;;5045376;27;97232;-75
2022/05/11 19:30:16;;;;;;;10.40;2.35;;;;;;;;;;5043716;27;95833;-76
2022/05/11 19:32:43;;;;;;;21.15;2.60;;;;;;;;;;5045400;27;96733;-76
2022/05/11 19:35:10;;;;;;;6.63;1.75;;;;;;;;;;5044571;27;97345;-74
2022/05/11 19:37:38;;;;;;;15.82;1.73;;;;;;;;;;5045281;27;95758;-74
2022/05/11 19:40:05;;;;;;;5.70;1.70;;;;;;;;;;5041290;27;97116;-74
2022/05/11 19:42:32;;;;;;;5.53;1.80;;;;;;;;;;5043322;27;97903;-75
2022/05/11 19:44:59;;;;;;;9.63;2.17;;;;;;;;;;5037732;27;95730;-75
2022/05/11 19:47:25;;;;;;;16.98;2.20;;;;;;;;;;5045043;27;97596;-75
2022/05/11 19:49:51;;;;;;;5.47;1.88;;;;;;;;;;5043587;27;95383;-75
2022/05/11 19:52:18;;;;;;;14.05;1.92;;;;;;;;;;5045023;27;96929;-75
2022/05/11 19:54:44;;;;;;;8.57;1.90;;;;;;;;;;5042703;27;97397;-75
2022/05/11 19:57:11;;;;;;;8.25;1.92;;;;;;;;;;5043531;27;95869;-75
2022/05/11 19:59:37;;;;;;;9.40;1.92;;;;;;;;;;5043983;27;97247;-75
2022/05/11 20:02:04;;;;;;;7.40;1.88;;;;;;;;;;5044745;27;97305;-75
2022/05/11 20:04:30;;;;;;;10.27;1.95;;;;;;;;;;5044185;27;96659;-75
2022/05/11 20:06:58;;;;;;;7.60;2.10;;;;;;;;;;5048111;27;96690;-75
2022/05/11 20:09:25;;;;;;;9.43;2.10;;;;;;;;;;5043954;27;95370;-74
2022/05/11 20:11:51;;;;;;;6.30;1.90;;;;;;;;;;5045048;27;97091;-75
2022/05/11 20:14:18;;;;;;;8.18;2.15;;;;;;;;;;5045125;27;97359;-74
2022/05/11 20:16:53;;;;;;;6.00;2.00;;;;;;;;;;5038515;27;95849;-74
2022/05/11 20:19:21;;;;;;;9.60;2.10;;;;;;;;;;5043948;27;99582;-75
2022/05/11 20:21:48;;;;;;;12.63;5.07;;;;;;;;;;5044279;27;96912;-75
2022/05/11 20:24:17;;;;;;;11.73;2.60;;;;;;;;;;5042014;27;95810;-74
2022/05/11 20:26:45;;;;;;;8.75;2.17;;;;;;;;;;5035291;27;97561;-73
2022/05/11 20:29:12;;;;;;;10.88;2.20;;;;;;;;;;5046542;27;97678;-74
2022/05/11 20:37:09;;;;;;;8.45;2.55;;;;;;;;;;5030335;28;95616;-75
2022/05/11 20:39:35;;;;;;;8.68;2.30;;;;;;;;;;5028930;27;96809;-73
2022/05/11 20:42:02;;;;;;;10.93;2.90;;;;;;;;;;5030689;27;97301;-76
2022/05/11 20:44:28;;;;;;;7.10;2.55;;;;;;;;;;5031290;27;96446;-77
2022/05/11 20:46:55;;;;;;;8.70;2.67;;;;;;;;;;5028563;28;97089;-76
2022/05/11 20:49:24;;;;;;;8.68;2.85;;;;;;;;;;5028016;27;97018;-74
2022/05/11 20:51:50;;;;;;;7.50;2.55;;;;;;;;;;5034617;27;95964;-77
2022/05/11 20:54:17;;;;;;;12.10;2.90;;;;;;;;;;5029289;27;97359;-76
2022/05/11 20:56:51;;;;;;;5.22;2.40;;;;;;;;;;5031564;27;96882;-76
2022/05/11 20:59:18;;;;;;;10.07;3.15;;;;;;;;;;5029693;28;96817;-76
2022/05/11 21:01:44;;;;;;;8.70;2.78;;;;;;;;;;5031153;27;97320;-75
2022/05/11 21:04:10;;;;;;;9.15;3.40;;;;;;;;;;5034728;27;95421;-76
2022/05/11 21:06:42;;;;;;;8.50;2.65;;;;;;;;;;5051674;27;96722;-76
2022/05/11 21:09:08;;;;;;;10.63;3.28;;;;;;;;;;5034612;27;98013;-76
2022/05/11 21:11:35;;;;;;;7.22;3.00;;;;;;;;;;5031251;28;95980;-77
2022/05/11 21:14:01;;;;;;;7.40;3.13;;;;;;;;;;5033268;27;95777;-76
2022/05/11 21:16:27;;;;;;;7.63;2.80;;;;;;;;;;5030809;28;95395;-76
2022/05/11 21:18:54;;;;;;;7.55;2.70;;;;;;;;;;5029300;28;96666;-76
2022/05/11 21:21:21;;;;;;;10.30;2.72;;;;;;;;;;5029969;28;97224;-76
2022/05/11 21:23:47;;;;;;;7.00;2.90;;;;;;;;;;5030445;27;95953;-75
2022/05/11 21:26:13;;;;;;;10.55;3.45;;;;;;;;;;5031170;28;96654;-75
2022/05/11 21:28:40;;;;;;;12.32;3.60;;;;;;;;;;5030096;28;97463;-74
2022/05/11 21:31:06;;;;;;;11.77;3.65;;;;;;;;;;5031040;27;96251;-75
2022/05/11 21:33:33;;;;;;;9.00;3.40;;;;;;;;;;5031096;28;97176;-76
2022/05/11 21:35:59;;;;;;;8.20;3.05;;;;;;;;;;5033089;28;95445;-75
2022/05/11 21:38:25;;;;;;;12.55;3.75;;;;;;;;;;5030426;28;96717;-76
2022/05/11 21:40:51;;;;;;;11.07;3.60;;;;;;;;;;5030639;27;97098;-75
2022/05/11 21:43:18;;;;;;;10.05;3.97;;;;;;;;;;5030074;27;95367;-75
2022/05/11 21:45:45;;;;;;;16.15;3.55;;;;;;;;;;5026178;28;96667;-76
2022/05/11 21:48:12;;;;;;;10.75;3.88;;;;;;;;;;5029198;27;97066;-77
2022/05/11 21:50:39;;;;;;;9.32;3.47;;;;;;;;;;5030381;27;95812;-74
2022/05/11 21:53:06;;;;;;;7.30;2.97;;;;;;;;;;5030652;28;96631;-76
2022/05/11 21:55:33;;;;;;;7.55;2.40;;;;;;;;;;5032969;27;97342;-76
2022/05/11 21:58:02;;;;;;;8.50;2.53;;;;;;;;;;5030267;28;95659;-76
2022/05/11 22:00:28;;;;;;;11.10;2.60;;;;;;;;;;5029482;28;96570;-76
2022/05/11 22:02:55;;;;;;;9.13;2.90;;;;;;;;;;5030032;28;95404;-76
2022/05/11 22:05:22;;;;;;;12.52;3.10;;;;;;;;;;5029673;27;96681;-75
2022/05/11 22:07:49;;;;;;;9.45;2.50;;;;;;;;;;5030181;27;97155;-76
2022/05/11 22:10:17;;;;;;;9.45;2.67;;;;;;;;;;5028601;28;95673;-75
2022/05/11 22:12:43;;;;;;;9.20;2.60;;;;;;;;;;5030709;28;97125;-75
2022/05/11 22:15:10;;;;;;;13.60;2.13;;;;;;;;;;5030636;28;97885;-76
2022/05/11 22:17:37;;;;;;;10.98;2.83;;;;;;;;;;5033151;27;95380;-76
2022/05/11 22:20:04;;;;;;;8.80;2.20;;;;;;;;;;5029909;28;97357;-75
2022/05/11 22:22:30;;;;;;;9.57;2.40;;;;;;;;;;5029810;28;95506;-77
2022/05/11 22:25:14;;;;;;;12.45;2.80;;;;;;;;;;5030001;28;96955;-76
2022/05/11 22:27:42;;;;;;;10.70;2.40;;;;;;;;;;5014493;28;97404;-75
2022/05/11 22:30:09;;;;;;;10.05;2.58;;;;;;;;;;5029895;27;95909;-77
2022/05/11 22:32:35;;;;;;;13.15;2.70;;;;;;;;;;5029376;28;97098;-76
2022/05/11 22:35:01;;;;;;;13.25;2.50;;;;;;;;;;5030033;28;97684;-77
2022/05/11 22:37:28;;;;;;;9.07;2.08;;;;;;;;;;5029303;28;95440;-76
2022/05/11 22:39:55;;;;;;;14.60;2.83;;;;;;;;;;5033274;28;96722;-76
2022/05/11 22:42:24;;;;;;;13.45;2.78;;;;;;;;;;5029034;28;95485;-75
2022/05/11 22:44:52;;;;;;;9.93;2.30;;;;;;;;;;5029647;28;95628;-75
2022/05/11 22:47:19;;;;;;;12.50;2.53;;;;;;;;;;5029001;28;97864;-76
2022/05/11 22:49:45;;;;;;;14.60;2.72;;;;;;;;;;5030019;28;95296;-76
2022/05/11 22:52:11;;;;;;;12.13;2.50;;;;;;;;;;5029435;28;97061;-76
2022/05/11 22:54:38;;;;;;;11.50;2.50;;;;;;;;;;5029505;28;97429;-76
2022/05/11 22:57:04;;;;;;;10.20;2.13;;;;;;;;;;5029881;27;95691;-76
2022/05/11 22:59:31;;;;;;;13.15;2.10;;;;;;;;;;5029074;27;97199;-75
2022/05/11 23:01:57;;;;;;;10.93;2.38;;;;;;;;;;5032079;27;96079;-75
2022/05/11 23:04:23;;;;;;;11.60;2.10;;;;;;;;;;5032942;28;96831;-76
2022/05/11 23:06:50;;;;;;;9.23;2.03;;;;;;;;;;5028927;28;97379;-76
2022/05/11 23:09:16;;;;;;;8.82;1.98;;;;;;;;;;5029576;27;95450;-76
2022/05/11 23:11:43;;;;;;;13.60;2.20;;;;;;;;;;5029597;27;96924;-76
2022/05/11 23:14:09;;;;;;;14.48;2.25;;;;;;;;;;5028448;27;97420;-75
2022/05/11 23:16:35;;;;;;;8.70;2.00;;;;;;;;;;5029111;27;95867;-76
2022/05/11 23:19:02;;;;;;;12.38;2.65;;;;;;;;;;5029858;27;97098;-75
2022/05/11 23:21:28;;;;;;;12.93;2.80;;;;;;;;;;5027983;27;95932;-75
2022/05/11 23:23:54;;;;;;;13.52;2.25;;;;;;;;;;5032493;28;95342;-75
2022/05/11 23:26:20;;;;;;;12.52;2.67;;;;;;;;;;5028796;28;97397;-76
2022/05/11 23:28:47;;;;;;;9.70;2.22;;;;;;;;;;5028012;27;96818;-76
2022/05/11 23:31:13;;;;;;;11.02;2.38;;;;;;;;;;5028350;28;96748;-76
2022/05/11 23:33:40;;;;;;;10.70;2.50;;;;;;;;;;5028550;27;99127;-75
2022/05/11 23:36:06;;;;;;;8.93;2.70;;;;;;;;;;5028057;27;96487;-76
2022/05/11 23:38:32;;;;;;;11.40;2.25;;;;;;;;;;5028181;28;96979;-75
2022/05/11 23:40:59;;;;;;;12.65;2.03;;;;;;;;;;5027986;28;97589;-76
2022/05/11 23:43:25;;;;;;;9.45;2.35;;;;;;;;;;5032034;28;95709;-75
2022/05/11 23:45:51;;;;;;;11.13;1.90;;;;;;;;;;5028630;28;97071;-76
2022/05/11 23:48:18;;;;;;;15.27;2.70;;;;;;;;;;5027598;27;95359;-76
2022/05/11 23:50:44;;;;;;;9.23;1.92;;;;;;;;;;5028218;28;96843;-75
2022/05/11 23:53:11;;;;;;;10.40;1.98;;;;;;;;;;5028567;28;97294;-76
2022/05/11 23:55:38;;;;;;;7.10;1.80;;;;;;;;;;5028014;27;95707;-77
2022/05/11 23:58:05;;;;;;;11.05;2.22;;;;;;;;;;5028600;28;96771;-77
